Time;durP1;ratioP1;P1;durP2;ratioP2;P2;SDS_P1;SDS_P2;PMS_P1;PMS_P2;Temp;Humidity;BMP_temperature;BMP_pressure;BME280_temperature;BME280_humidity;BME280_pressure;Samples;Min_cycle;Max_cycle;Signal;HPM_P1;HPM_P2
2021/03/24 00:01:35;;;;;;;28.98;16.13;;;4.20;99.90;;;;;;5082901;28;20394;-60
2021/03/24 00:04:00;;;;;;;31.15;17.25;;;3.00;99.90;;;;;;5092145;28;20389;-58
2021/03/24 00:06:26;;;;;;;32.88;17.13;;;3.00;99.90;;;;;;5090966;28;20394;-60
2021/03/24 00:08:52;;;;;;;32.80;17.07;;;4.20;99.90;;;;;;5087678;28;20417;-60
2021/03/24 00:11:17;;;;;;;32.87;16.77;;;4.30;99.90;;;;;;5090806;28;20394;-61
2021/03/24 00:13:43;;;;;;;34.60;17.00;;;4.60;99.90;;;;;;5084801;28;20384;-60
2021/03/24 00:16:11;;;;;;;33.30;17.20;;;2.80;99.90;;;;;;5089556;28;20404;-60
2021/03/24 00:18:37;;;;;;;31.33;17.35;;;4.20;99.90;;;;;;5077792;28;20371;-60
2021/03/24 00:21:04;;;;;;;34.60;18.60;;;2.70;99.90;;;;;;5089181;28;20378;-61
2021/03/24 00:23:29;;;;;;;35.95;18.10;;;4.40;99.90;;;;;;5073382;28;20406;-60
2021/03/24 00:25:55;;;;;;;32.23;17.40;;;3.90;99.90;;;;;;5092918;28;20401;-61
2021/03/24 00:28:21;;;;;;;30.60;17.80;;;2.50;99.90;;;;;;5090062;28;20432;-61
2021/03/24 00:30:48;;;;;;;31.50;17.73;;;3.00;99.90;;;;;;5092206;28;20386;-60
2021/03/24 00:33:17;;;;;;;33.75;19.52;;;4.20;99.90;;;;;;5078434;28;20461;-60
2021/03/24 00:35:43;;;;;;;30.52;18.15;;;2.50;99.90;;;;;;5073392;28;20751;-60
2021/03/24 00:38:11;;;;;;;33.80;17.48;;;3.70;99.90;;;;;;5091518;28;20452;-60
2021/03/24 00:40:40;;;;;;;32.20;18.17;;;2.50;99.90;;;;;;5084688;28;20897;-60
2021/03/24 00:43:06;;;;;;;33.67;19.70;;;3.70;99.90;;;;;;5090782;28;20405;-60
2021/03/24 00:45:33;;;;;;;33.15;19.08;;;3.40;99.90;;;;;;5091010;28;20390;-60
2021/03/24 00:48:00;;;;;;;30.85;17.92;;;3.00;99.90;;;;;;5073668;28;20778;-60
2021/03/24 00:50:28;;;;;;;36.45;18.48;;;3.30;99.90;;;;;;5089966;28;20436;-61
2021/03/24 00:52:53;;;;;;;31.88;17.35;;;2.50;99.90;;;;;;5091914;28;20456;-60
2021/03/24 00:55:20;;;;;;;39.22;19.40;;;2.50;99.90;;;;;;5091568;28;20901;-61
2021/03/24 00:57:45;;;;;;;34.78;18.10;;;4.20;99.90;;;;;;5082051;28;20456;-60
2021/03/24 01:00:16;;;;;;;31.90;18.33;;;4.00;99.90;;;;;;5091243;28;20394;-61
2021/03/24 01:02:42;;;;;;;33.55;19.40;;;2.50;99.90;;;;;;5089653;28;20393;-60
2021/03/24 01:05:09;;;;;;;34.92;19.10;;;2.50;99.90;;;;;;5090867;28;20490;-60
2021/03/24 01:07:35;;;;;;;35.25;19.55;;;2.50;99.90;;;;;;5071849;28;20440;-60
2021/03/24 01:10:01;;;;;;;36.80;18.63;;;4.30;99.90;;;;;;5071079;28;20418;-58
2021/03/24 01:12:27;;;;;;;34.40;20.60;;;1.70;99.90;;;;;;5082483;28;20421;-60
2021/03/24 01:14:53;;;;;;;35.07;19.10;;;2.70;99.90;;;;;;5073575;28;20732;-61
2021/03/24 01:17:19;;;;;;;34.30;19.37;;;2.50;99.90;;;;;;5077952;28;20509;-60
2021/03/24 01:19:44;;;;;;;35.25;19.25;;;3.40;99.90;;;;;;5090405;28;20429;-60
2021/03/24 01:22:10;;;;;;;33.67;18.40;;;3.80;99.90;;;;;;5090516;28;20852;-61
2021/03/24 01:24:35;;;;;;;33.27;18.43;;;3.90;99.90;;;;;;5089757;28;20389;-60
2021/03/24 01:27:01;;;;;;;35.92;18.58;;;3.50;99.90;;;;;;5084881;28;20383;-57
2021/03/24 01:29:27;;;;;;;35.83;19.85;;;1.70;99.90;;;;;;5082871;28;20394;-60
2021/03/24 01:31:52;;;;;;;36.13;19.40;;;1.60;99.90;;;;;;5081231;28;20737;-61
2021/03/24 01:34:18;;;;;;;40.67;21.67;;;3.00;99.90;;;;;;5070424;28;20462;-60
2021/03/24 01:36:44;;;;;;;37.50;20.73;;;1.50;99.90;;;;;;5084799;28;20790;-61
2021/03/24 01:39:10;;;;;;;37.63;21.10;;;3.20;99.90;;;;;;5086495;28;20390;-61
2021/03/24 01:41:36;;;;;;;35.03;19.85;;;1.60;99.90;;;;;;5090457;28;20913;-60
2021/03/24 01:44:01;;;;;;;37.50;20.85;;;1.70;99.90;;;;;;5088059;28;20394;-58
2021/03/24 01:46:35;;;;;;;36.28;19.70;;;2.50;99.90;;;;;;5090663;28;20857;-60
2021/03/24 01:49:06;;;;;;;34.92;18.83;;;2.90;99.90;;;;;;5089448;28;20411;-58
2021/03/24 01:51:42;;;;;;;35.78;19.95;;;1.60;99.90;;;;;;5089566;28;20398;-58
2021/03/24 01:54:12;;;;;;;33.85;19.63;;;1.50;99.90;;;;;;5089746;28;20458;-61
2021/03/24 01:56:40;;;;;;;37.10;20.77;;;1.50;99.90;;;;;;5081317;28;20438;-60
2021/03/24 01:59:06;;;;;;;35.33;20.02;;;2.20;99.90;;;;;;5088991;28;20404;-60
2021/03/24 02:01:33;;;;;;;37.67;20.08;;;3.10;99.90;;;;;;5073809;28;20384;-60
2021/03/24 02:04:00;;;;;;;37.95;19.27;;;1.50;99.90;;;;;;5087712;28;20403;-60
2021/03/24 02:06:45;;;;;;;36.42;19.23;;;1.40;99.90;;;;;;5089540;28;20386;-62
2021/03/24 02:09:27;;;;;;;33.95;19.58;;;1.50;99.90;;;;;;5089596;28;20362;-60
2021/03/24 02:12:03;;;;;;;36.15;20.15;;;1.60;99.90;;;;;;5085416;28;20419;-61
2021/03/24 02:14:36;;;;;;;33.80;19.27;;;1.60;99.90;;;;;;5090528;28;20435;-61
2021/03/24 02:17:04;;;;;;;37.65;18.65;;;1.70;99.90;;;;;;5088714;28;20398;-58
2021/03/24 02:19:51;;;;;;;35.53;18.75;;;1.70;99.90;;;;;;5090134;28;20428;-61
2021/03/24 02:22:22;;;;;;;38.28;19.77;;;1.80;99.90;;;;;;5072647;28;20416;-60
2021/03/24 02:24:51;;;;;;;33.85;17.80;;;1.80;99.90;;;;;;5089169;28;20394;-61
2021/03/24 02:27:20;;;;;;;34.95;19.30;;;2.70;99.90;;;;;;5087437;28;20483;-61
2021/03/24 02:29:57;;;;;;;33.78;18.63;;;1.80;99.90;;;;;;5090114;28;20370;-61
2021/03/24 02:32:26;;;;;;;34.67;19.10;;;1.80;99.90;;;;;;5089549;28;20465;-61
2021/03/24 02:34:55;;;;;;;34.65;19.80;;;2.20;99.90;;;;;;5088929;28;20394;-61
2021/03/24 02:37:21;;;;;;;31.90;18.98;;;1.70;99.90;;;;;;5078689;28;20379;-60
2021/03/24 02:39:48;;;;;;;30.38;17.50;;;1.50;99.90;;;;;;5086320;28;20689;-61
2021/03/24 02:42:15;;;;;;;32.75;17.92;;;1.40;99.90;;;;;;5076283;28;20391;-61
2021/03/24 02:44:43;;;;;;;30.65;16.88;;;1.40;99.90;;;;;;5088920;28;20436;-61
2021/03/24 02:47:10;;;;;;;33.70;17.88;;;2.90;99.90;;;;;;5084413;28;20730;-61
2021/03/24 02:49:40;;;;;;;34.15;17.80;;;2.20;99.90;;;;;;5072889;28;20409;-61
2021/03/24 02:52:06;;;;;;;33.75;17.13;;;1.40;99.90;;;;;;5088272;28;20413;-59
2021/03/24 02:54:33;;;;;;;31.00;18.70;;;1.30;99.90;;;;;;5089334;28;20381;-61
2021/03/24 02:57:00;;;;;;;29.30;17.45;;;1.40;99.90;;;;;;5088191;28;20483;-61
2021/03/24 02:59:26;;;;;;;30.77;17.45;;;1.40;99.90;;;;;;5089209;28;20382;-61
2021/03/24 03:02:12;;;;;;;33.37;18.73;;;1.40;99.90;;;;;;5088734;28;20405;-61
2021/03/24 03:04:45;;;;;;;32.25;18.88;;;1.40;99.90;;;;;;5089771;28;20370;-61
2021/03/24 03:07:18;;;;;;;33.58;18.40;;;1.40;99.90;;;;;;5078930;28;20458;-61
2021/03/24 03:09:49;;;;;;;35.15;18.42;;;1.50;99.90;;;;;;5093636;28;20396;-61
2021/03/24 03:12:33;;;;;;;33.97;19.48;;;1.40;99.90;;;;;;5092227;28;20464;-61
2021/03/24 03:15:02;;;;;;;36.05;19.90;;;1.40;99.90;;;;;;5094000;28;20389;-63
2021/03/24 03:17:36;;;;;;;41.10;19.27;;;1.50;99.90;;;;;;5086873;28;20415;-61
2021/03/24 03:20:13;;;;;;;36.15;19.88;;;1.40;99.90;;;;;;5091661;28;20925;-61
2021/03/24 03:22:44;;;;;;;33.97;19.07;;;1.30;99.90;;;;;;5074497;28;20429;-61
2021/03/24 03:25:19;;;;;;;37.70;20.53;;;1.40;99.90;;;;;;5092757;28;20386;-61
2021/03/24 03:27:46;;;;;;;36.50;21.58;;;1.50;99.90;;;;;;5091948;28;20394;-61
2021/03/24 03:30:15;;;;;;;34.10;20.10;;;1.40;99.90;;;;;;5092776;28;20397;-61
2021/03/24 03:32:42;;;;;;;40.05;21.20;;;1.50;99.90;;;;;;5092888;28;20887;-60
2021/03/24 03:35:18;;;;;;;36.80;21.38;;;1.40;99.90;;;;;;5073541;28;20764;-61
2021/03/24 03:37:45;;;;;;;36.30;20.73;;;0.20;99.90;;;;;;5082428;28;20383;-62
2021/03/24 03:40:17;;;;;;;36.60;20.02;;;1.40;99.90;;;;;;5077317;28;20390;-61
2021/03/24 03:42:43;;;;;;;36.23;21.07;;;1.40;99.90;;;;;;5089583;28;20380;-60
2021/03/24 03:45:11;;;;;;;39.43;21.40;;;1.90;99.90;;;;;;5065123;28;20405;-66
2021/03/24 03:47:42;;;;;;;34.38;19.40;;;1.30;99.90;;;;;;5093098;28;20938;-63
2021/03/24 03:50:13;;;;;;;35.65;20.33;;;1.20;99.90;;;;;;5092722;28;20397;-62
2021/03/24 03:53:03;;;;;;;37.30;20.35;;;1.20;99.90;;;;;;5086834;28;20506;-62
2021/03/24 03:55:57;;;;;;;34.77;21.07;;;1.20;99.90;;;;;;5092326;28;20455;-64
2021/03/24 03:58:32;;;;;;;40.60;21.98;;;1.10;99.90;;;;;;5090600;28;20410;-62
2021/03/24 04:01:23;;;;;;;36.90;21.13;;;1.00;99.90;;;;;;5092852;28;20370;-62
2021/03/24 04:04:01;;;;;;;41.22;22.38;;;1.00;99.90;;;;;;5090339;28;20755;-62
2021/03/24 04:06:34;;;;;;;40.83;22.40;;;1.00;99.90;;;;;;5084344;28;20836;-61
2021/03/24 04:09:00;;;;;;;41.63;22.20;;;0.90;99.90;;;;;;5054825;28;20388;-63
2021/03/24 04:11:31;;;;;;;41.67;22.55;;;0.90;99.90;;;;;;5085495;28;20466;-62
2021/03/24 04:13:59;;;;;;;43.42;22.63;;;3.10;99.90;;;;;;5090817;28;20389;-62
2021/03/24 04:16:26;;;;;;;37.97;21.75;;;0.80;99.90;;;;;;5092404;28;20488;-63
2021/03/24 04:19:02;;;;;;;44.03;22.38;;;2.80;99.90;;;;;;5090899;28;20489;-62
2021/03/24 04:21:30;;;;;;;44.30;21.23;;;0.80;99.90;;;;;;5084943;28;20471;-63
2021/03/24 04:24:02;;;;;;;42.60;22.02;;;0.80;99.90;;;;;;5076072;28;20462;-62
2021/03/24 04:26:35;;;;;;;38.80;21.48;;;2.80;99.90;;;;;;5091742;28;20476;-62
2021/03/24 04:29:09;;;;;;;39.42;22.10;;;0.80;99.90;;;;;;5092650;28;20396;-63
2021/03/24 04:31:40;;;;;;;39.72;22.25;;;0.80;99.90;;;;;;5084932;28;20879;-62
2021/03/24 04:34:06;;;;;;;37.80;21.65;;;0.90;99.90;;;;;;5090511;28;20420;-57
2021/03/24 04:36:38;;;;;;;40.67;23.13;;;0.80;99.90;;;;;;5070593;28;20402;-59
2021/03/24 04:39:28;;;;;;;40.80;20.98;;;1.70;99.90;;;;;;5090699;28;20724;-57
2021/03/24 04:41:57;;;;;;;47.47;23.05;;;0.90;99.90;;;;;;5086859;28;20404;-61
2021/03/24 04:44:29;;;;;;;42.92;23.75;;;0.90;99.90;;;;;;5088263;28;20390;-63
2021/03/24 04:47:11;;;;;;;43.40;23.40;;;0.80;99.90;;;;;;5091179;28;20435;-62
2021/03/24 04:49:44;;;;;;;41.13;23.67;;;0.80;99.90;;;;;;5091906;28;20377;-63
2021/03/24 04:52:11;;;;;;;41.15;22.33;;;0.80;99.90;;;;;;5090126;28;20401;-62
2021/03/24 04:54:38;;;;;;;38.17;21.75;;;0.80;99.90;;;;;;5092139;28;20383;-65
2021/03/24 04:57:08;;;;;;;42.70;21.77;;;0.90;99.90;;;;;;5092009;28;20390;-63
2021/03/24 04:59:37;;;;;;;39.93;22.83;;;1.40;99.90;;;;;;5090344;28;20802;-65
2021/03/24 05:02:15;;;;;;;40.65;22.20;;;2.80;99.90;;;;;;5091429;28;20420;-66
2021/03/24 05:04:52;;;;;;;38.53;22.17;;;2.60;99.90;;;;;;5069011;28;20386;-66
2021/03/24 05:08:00;;;;;;;44.10;23.02;;;0.80;99.90;;;;;;5079822;28;20380;-66
2021/03/24 05:10:28;;;;;;;40.20;22.88;;;0.90;99.90;;;;;;5057068;28;20518;-65
2021/03/24 05:13:20;;;;;;;42.90;22.70;;;0.80;99.90;;;;;;5073625;28;20488;-65
2021/03/24 05:15:56;;;;;;;40.80;22.08;;;0.70;99.90;;;;;;5090884;28;20386;-63
2021/03/24 05:18:22;;;;;;;39.42;22.92;;;0.60;99.90;;;;;;5090088;28;20754;-64
2021/03/24 05:21:02;;;;;;;40.95;22.27;;;0.70;99.90;;;;;;5091031;28;20485;-62
2021/03/24 05:23:29;;;;;;;41.55;23.08;;;0.70;99.90;;;;;;5089077;28;20897;-67
2021/03/24 05:26:05;;;;;;;38.25;22.20;;;0.70;99.90;;;;;;5091021;28;20385;-63
2021/03/24 05:28:45;;;;;;;43.67;22.85;;;0.70;99.90;;;;;;5087878;28;20895;-64
2021/03/24 05:31:27;;;;;;;46.88;23.10;;;2.90;99.90;;;;;;5082044;28;20397;-62
2021/03/24 05:34:02;;;;;;;38.13;21.50;;;0.80;99.90;;;;;;5086800;28;20421;-62
2021/03/24 05:36:34;;;;;;;40.05;22.65;;;0.90;99.90;;;;;;5090848;28;21015;-61
2021/03/24 05:39:21;;;;;;;45.72;22.95;;;0.60;99.90;;;;;;5089914;28;20398;-63
2021/03/24 05:41:56;;;;;;;40.73;21.90;;;1.70;99.90;;;;;;5090540;28;20878;-60
2021/03/24 05:44:59;;;;;;;36.10;21.63;;;1.30;99.90;;;;;;5089423;28;20531;-62
2021/03/24 05:47:28;;;;;;;39.80;21.38;;;1.50;99.90;;;;;;5052281;28;20395;-63
2021/03/24 05:50:15;;;;;;;38.90;21.10;;;1.70;99.90;;;;;;5088914;28;20394;-62
2021/03/24 05:53:14;;;;;;;34.70;21.17;;;2.00;99.90;;;;;;5090959;28;20413;-63
2021/03/24 05:56:05;;;;;;;36.60;19.85;;;2.20;99.90;;;;;;5089105;28;20436;-64
2021/03/24 05:58:57;;;;;;;36.47;20.13;;;2.30;99.90;;;;;;5089073;28;20448;-61
2021/03/24 06:01:28;;;;;;;32.27;18.47;;;2.40;99.90;;;;;;5089694;28;20860;-64
2021/03/24 06:04:16;;;;;;;32.85;19.13;;;2.70;99.90;;;;;;5090904;28;20393;-62
2021/03/24 06:07:00;;;;;;;30.80;18.30;;;3.10;99.90;;;;;;5088634;28;20382;-65
2021/03/24 06:09:41;;;;;;;28.55;17.05;;;3.70;99.90;;;;;;5088622;28;20571;-66
2021/03/24 06:12:19;;;;;;;30.40;16.20;;;4.40;99.90;;;;;;5089290;28;20499;-59
2021/03/24 06:15:07;;;;;;;30.02;16.45;;;5.10;99.90;;;;;;5090024;28;20382;-53
2021/03/24 06:17:57;;;;;;;27.23;16.10;;;5.80;99.90;;;;;;5090232;28;20431;-49
2021/03/24 06:20:45;;;;;;;26.10;14.90;;;6.30;99.90;;;;;;5088287;28;20406;-68
2021/03/24 06:23:32;;;;;;;23.90;15.63;;;7.20;99.90;;;;;;5083282;28;20488;-68
2021/03/24 06:26:27;;;;;;;27.52;16.20;;;7.60;99.90;;;;;;5089779;28;20406;-70
2021/03/24 06:29:24;;;;;;;27.80;15.77;;;8.10;99.90;;;;;;5033307;28;20777;-70
2021/03/24 06:32:22;;;;;;;25.20;15.63;;;8.40;99.90;;;;;;5090248;28;20458;-70
2021/03/24 06:35:22;;;;;;;24.27;15.80;;;9.00;99.90;;;;;;5084479;28;20433;-71
2021/03/24 06:37:47;;;;;;;27.10;15.60;;;9.10;99.90;;;;;;5089817;28;20404;-72
2021/03/24 06:40:25;;;;;;;23.90;16.03;;;9.30;99.90;;;;;;5088874;28;20942;-72
2021/03/24 06:42:59;;;;;;;26.58;16.10;;;9.60;99.90;;;;;;5088929;28;20439;-65
2021/03/24 06:45:51;;;;;;;26.92;15.52;;;9.60;99.90;;;;;;5089589;28;20370;-73
2021/03/24 06:48:48;;;;;;;26.02;16.33;;;9.70;99.90;;;;;;5088366;28;20406;-72
2021/03/24 06:51:20;;;;;;;27.50;16.50;;;10.20;99.90;;;;;;5071445;28;20768;-73
2021/03/24 06:54:13;;;;;;;25.98;17.27;;;10.80;99.90;;;;;;5090525;28;20413;-72
2021/03/24 06:56:56;;;;;;;26.50;17.27;;;11.70;99.10;;;;;;5079615;28;20472;-77
2021/03/24 07:00:04;;;;;;;25.95;16.90;;;13.00;96.00;;;;;;5082989;28;20480;-74
2021/03/24 07:03:15;;;;;;;23.45;16.85;;;13.30;92.70;;;;;;5087723;28;20637;-77
2021/03/24 07:05:59;;;;;;;27.02;17.83;;;13.30;93.10;;;;;;5087861;28;20839;-77
2021/03/24 07:09:03;;;;;;;27.70;17.48;;;13.10;90.90;;;;;;5089276;28;20634;-79
2021/03/24 07:11:47;;;;;;;27.42;17.02;;;12.90;92.00;;;;;;5049946;28;20426;-80
2021/03/24 07:14:27;;;;;;;26.33;17.10;;;13.50;90.50;;;;;;5087315;28;20772;-79
2021/03/24 07:17:11;;;;;;;30.70;18.13;;;13.80;88.20;;;;;;5074541;28;20803;-76
2021/03/24 07:20:11;;;;;;;27.75;17.17;;;13.00;90.50;;;;;;5092464;28;20386;-78
2021/03/24 07:22:52;;;;;;;25.25;17.23;;;13.10;90.50;;;;;;5067627;28;20884;-76
2021/03/24 07:25:25;;;;;;;27.42;17.63;;;13.30;89.70;;;;;;5070977;28;20672;-79
2021/03/24 07:28:23;;;;;;;25.10;16.73;;;12.60;91.00;;;;;;5093261;28;20722;-75
2021/03/24 07:31:01;;;;;;;26.87;17.47;;;13.40;90.80;;;;;;5090683;28;20397;-77
2021/03/24 07:33:49;;;;;;;25.25;18.55;;;14.40;86.50;;;;;;5091065;28;20409;-75
2021/03/24 07:36:50;;;;;;;24.48;17.33;;;15.40;83.90;;;;;;5087770;28;20452;-77
2021/03/24 07:39:29;;;;;;;25.83;16.92;;;16.00;78.00;;;;;;5070961;28;20425;-77
2021/03/24 07:41:57;;;;;;;26.33;17.63;;;15.10;79.90;;;;;;5088887;28;20402;-77
2021/03/24 07:44:44;;;;;;;24.88;16.65;;;15.30;79.90;;;;;;5088496;28;20390;-76
2021/03/24 07:47:38;;;;;;;25.53;17.20;;;15.80;77.60;;;;;;5069528;28;20489;-61
2021/03/24 07:50:12;;;;;;;27.77;17.95;;;16.50;75.80;;;;;;5072488;28;20475;-77
2021/03/24 07:53:08;;;;;;;32.03;18.50;;;16.80;73.30;;;;;;5088417;28;20477;-76
2021/03/24 07:55:41;;;;;;;25.08;17.15;;;17.10;70.80;;;;;;5074845;28;20417;-72
2021/03/24 07:58:59;;;;;;;25.83;17.85;;;17.30;70.10;;;;;;5091799;28;20397;-67
2021/03/24 08:01:31;;;;;;;27.15;17.67;;;17.80;68.50;;;;;;5073115;28;20514;-78
2021/03/24 08:04:23;;;;;;;25.00;17.75;;;17.60;66.80;;;;;;5092880;28;20473;-74
2021/03/24 08:07:23;;;;;;;25.83;18.13;;;17.40;68.20;;;;;;5091346;28;20797;-76
2021/03/24 08:10:11;;;;;;;24.77;17.47;;;18.50;65.00;;;;;;5093407;28;20374;-76
2021/03/24 08:13:04;;;;;;;24.60;17.23;;;19.40;62.40;;;;;;5091304;28;20450;-71
2021/03/24 08:16:02;;;;;;;24.92;17.30;;;18.80;62.30;;;;;;5091790;28;20374;-74
2021/03/24 08:18:44;;;;;;;27.48;17.83;;;18.50;62.60;;;;;;5054832;28;20410;-73
2021/03/24 08:21:28;;;;;;;27.33;18.42;;;18.30;63.60;;;;;;5092486;28;20802;-61
2021/03/24 08:24:21;;;;;;;25.42;18.00;;;17.70;62.00;;;;;;5091812;28;20414;-66
2021/03/24 08:26:54;;;;;;;24.95;18.25;;;18.20;63.60;;;;;;5074058;28;20406;-72
2021/03/24 08:29:57;;;;;;;26.27;18.52;;;18.10;62.00;;;;;;5090379;28;20433;-70
2021/03/24 08:33:07;;;;;;;24.75;17.15;;;17.60;64.20;;;;;;5090943;28;20495;-73
2021/03/24 08:35:57;;;;;;;26.25;18.08;;;18.50;62.70;;;;;;5091055;28;20439;-73
2021/03/24 08:39:21;;;;;;;24.87;18.00;;;19.00;62.00;;;;;;5091351;28;20369;-72
2021/03/24 08:42:07;;;;;;;26.85;19.13;;;18.10;62.30;;;;;;5012105;28;20427;-71
2021/03/24 08:45:13;;;;;;;26.83;17.83;;;17.30;66.80;;;;;;5079273;28;20416;-69
2021/03/24 08:47:41;;;;;;;29.00;17.73;;;18.10;64.60;;;;;;5092266;28;20385;-70
2021/03/24 08:50:18;;;;;;;25.88;17.33;;;18.90;60.90;;;;;;5090568;28;20398;-70
2021/03/24 08:52:56;;;;;;;24.83;16.42;;;18.50;62.10;;;;;;5090609;28;20471;-67
2021/03/24 08:55:49;;;;;;;24.58;17.50;;;19.00;61.60;;;;;;5090616;28;20390;-70
2021/03/24 08:58:27;;;;;;;25.47;17.77;;;19.60;60.30;;;;;;5090070;28;20382;-62
2021/03/24 09:01:19;;;;;;;25.10;17.70;;;19.50;59.40;;;;;;5090860;28;20447;-70
2021/03/24 09:04:23;;;;;;;24.57;17.80;;;19.90;59.40;;;;;;5091138;28;20432;-65
2021/03/24 09:06:52;;;;;;;26.65;17.50;;;20.30;59.00;;;;;;5091097;28;20812;-69
2021/03/24 09:09:45;;;;;;;24.42;16.00;;;20.40;57.70;;;;;;5089902;28;20636;-69
2021/03/24 09:12:21;;;;;;;20.88;15.00;;;20.40;57.50;;;;;;5091044;28;20484;-60
2021/03/24 09:15:02;;;;;;;20.75;13.75;;;20.60;55.90;;;;;;5091508;28;20473;-69
2021/03/24 09:17:46;;;;;;;21.52;14.90;;;20.10;56.60;;;;;;5089184;28;20394;-69
2021/03/24 09:20:38;;;;;;;23.92;14.88;;;20.10;56.10;;;;;;5091305;28;20473;-61
2021/03/24 09:23:37;;;;;;;21.95;14.10;;;20.60;56.50;;;;;;5072024;28;20413;-71
2021/03/24 09:26:24;;;;;;;22.30;14.77;;;21.30;55.00;;;;;;5090594;28;20518;-69
2021/03/24 09:28:59;;;;;;;18.85;13.32;;;20.70;54.70;;;;;;5090280;28;20386;-68
2021/03/24 09:31:46;;;;;;;20.37;14.57;;;19.80;54.70;;;;;;5089672;28;20443;-67
2021/03/24 09:34:30;;;;;;;20.08;14.13;;;19.90;56.00;;;;;;5089151;28;20413;-60
2021/03/24 09:36:58;;;;;;;22.83;14.25;;;21.40;54.00;;;;;;5073338;28;20401;-70
2021/03/24 09:39:32;;;;;;;21.27;14.07;;;21.40;53.00;;;;;;5088909;28;20398;-69
2021/03/24 09:42:03;;;;;;;23.38;14.65;;;22.00;53.80;;;;;;5086796;28;20388;-70
2021/03/24 09:44:47;;;;;;;23.73;16.42;;;22.10;52.30;;;;;;5088423;28;20394;-69
2021/03/24 09:47:39;;;;;;;22.40;15.15;;;21.50;53.60;;;;;;5089162;28;20398;-60
2021/03/24 09:50:23;;;;;;;22.27;15.50;;;21.70;53.50;;;;;;5090900;28;20382;-67
2021/03/24 09:53:20;;;;;;;22.42;15.80;;;22.90;51.10;;;;;;5088915;28;20414;-70
2021/03/24 09:55:55;;;;;;;22.92;16.60;;;24.00;49.90;;;;;;5066481;28;20410;-69
2021/03/24 09:58:24;;;;;;;24.00;16.70;;;23.70;50.50;;;;;;5088899;28;20398;-68
2021/03/24 10:01:08;;;;;;;22.67;17.20;;;22.70;50.50;;;;;;5089720;28;20390;-68
2021/03/24 10:04:08;;;;;;;25.00;16.60;;;22.10;51.80;;;;;;5088432;28;20465;-68
2021/03/24 10:06:51;;;;;;;23.92;16.73;;;23.20;50.20;;;;;;5066808;28;21036;-68
2021/03/24 10:09:42;;;;;;;22.38;16.25;;;23.50;50.20;;;;;;5070785;28;20405;-66
2021/03/24 10:12:21;;;;;;;23.27;15.43;;;21.80;50.40;;;;;;5058458;28;20518;-69
2021/03/24 10:15:13;;;;;;;21.98;15.30;;;21.50;51.50;;;;;;5088964;28;20401;-67
2021/03/24 10:17:47;;;;;;;23.80;15.23;;;21.40;51.90;;;;;;5061846;28;20481;-71
2021/03/24 10:20:20;;;;;;;23.75;15.43;;;22.30;50.50;;;;;;5070589;28;20401;-61
2021/03/24 10:23:14;;;;;;;23.40;15.88;;;22.20;50.40;;;;;;5089847;28;20382;-65
2021/03/24 10:25:41;;;;;;;23.10;15.10;;;21.50;51.90;;;;;;5065950;28;20402;-69
2021/03/24 10:28:19;;;;;;;21.25;14.88;;;21.50;51.30;;;;;;5088533;28;20454;-70
2021/03/24 10:31:01;;;;;;;24.10;16.25;;;21.30;52.30;;;;;;5071865;28;20390;-69
2021/03/24 10:33:40;;;;;;;24.73;16.60;;;19.20;53.10;;;;;;5089120;28;20451;-67
2021/03/24 10:36:29;;;;;;;24.35;16.13;;;19.10;55.40;;;;;;5089156;28;20458;-69
2021/03/24 10:39:26;;;;;;;24.23;16.15;;;19.30;55.20;;;;;;5088936;28;21056;-68
2021/03/24 10:41:54;;;;;;;21.40;15.10;;;19.50;54.00;;;;;;5089852;28;20381;-69
2021/03/24 10:44:49;;;;;;;23.10;13.50;;;21.30;53.00;;;;;;5088282;28;20460;-68
2021/03/24 10:47:33;;;;;;;24.80;13.57;;;20.00;52.10;;;;;;5088867;28;20428;-60
2021/03/24 10:49:59;;;;;;;19.98;12.45;;;19.00;55.00;;;;;;5088600;28;20405;-66
2021/03/24 10:52:30;;;;;;;22.08;12.38;;;18.90;54.90;;;;;;5071298;28;20398;-67
2021/03/24 10:55:03;;;;;;;20.25;12.70;;;19.50;54.40;;;;;;5088372;28;20427;-68
2021/03/24 10:57:53;;;;;;;19.98;11.43;;;20.40;53.50;;;;;;5089212;28;20463;-67
2021/03/24 11:00:24;;;;;;;21.05;12.88;;;20.60;50.70;;;;;;5069757;28;20485;-68
2021/03/24 11:03:14;;;;;;;20.90;13.18;;;19.40;54.00;;;;;;5089629;28;20481;-68
2021/03/24 11:05:47;;;;;;;20.42;12.80;;;19.70;54.60;;;;;;5075117;28;20376;-68
2021/03/24 11:08:34;;;;;;;19.65;12.32;;;20.30;54.20;;;;;;5082888;28;20394;-60
2021/03/24 11:11:11;;;;;;;23.17;13.20;;;20.60;52.70;;;;;;5089069;28;20394;-66
2021/03/24 11:13:42;;;;;;;20.23;12.70;;;19.20;53.00;;;;;;5089466;28;20402;-68
2021/03/24 11:16:26;;;;;;;21.63;13.30;;;18.80;53.80;;;;;;5070990;28;20473;-67
2021/03/24 11:19:05;;;;;;;18.02;12.75;;;18.30;55.30;;;;;;5088061;28;20400;-66
2021/03/24 11:21:53;;;;;;;23.40;12.50;;;18.60;56.10;;;;;;5088797;28;20370;-67
2021/03/24 11:24:27;;;;;;;20.65;12.68;;;19.20;54.80;;;;;;5087413;28;20390;-66
2021/03/24 11:27:08;;;;;;;20.30;12.80;;;18.10;55.80;;;;;;5089990;28;20385;-67
2021/03/24 11:29:49;;;;;;;22.48;12.93;;;18.10;56.30;;;;;;5091647;28;20429;-66
2021/03/24 11:32:44;;;;;;;20.70;13.20;;;17.80;57.20;;;;;;5092801;28;20410;-59
2021/03/24 11:35:22;;;;;;;21.75;14.90;;;17.60;56.50;;;;;;5074460;28;20471;-66
2021/03/24 11:37:50;;;;;;;21.23;15.00;;;17.00;59.10;;;;;;5075297;28;20431;-67
2021/03/24 11:40:31;;;;;;;23.63;12.52;;;16.90;61.00;;;;;;5092876;28;20427;-60
2021/03/24 11:43:27;;;;;;;22.17;13.43;;;16.30;60.70;;;;;;5092738;28;20886;-67
2021/03/24 11:46:31;;;;;;;27.38;13.70;;;16.30;61.00;;;;;;5092529;28;20398;-66
2021/03/24 11:49:21;;;;;;;23.33;13.47;;;16.50;61.20;;;;;;5089441;28;20401;-66
2021/03/24 11:51:57;;;;;;;23.80;13.90;;;16.50;61.10;;;;;;5091686;28;20386;-67
2021/03/24 11:54:53;;;;;;;23.25;13.20;;;15.90;61.40;;;;;;5074120;28;20408;-65
2021/03/24 11:57:24;;;;;;;23.08;13.48;;;15.40;62.90;;;;;;5092166;28;20398;-66
2021/03/24 11:59:52;;;;;;;26.17;13.00;;;15.40;63.20;;;;;;5092224;28;20869;-66
2021/03/24 12:02:22;;;;;;;20.17;12.43;;;15.30;65.40;;;;;;5072520;28;20932;-61
2021/03/24 12:04:52;;;;;;;21.95;12.40;;;15.30;64.20;;;;;;5086063;28;20403;-67
2021/03/24 12:07:27;;;;;;;21.48;12.98;;;15.20;65.10;;;;;;5081935;28;20759;-60
2021/03/24 12:10:18;;;;;;;22.25;12.68;;;15.50;64.70;;;;;;5092858;28;20378;-66
2021/03/24 12:12:44;;;;;;;23.73;13.00;;;15.70;64.70;;;;;;5083255;28;20417;-67
2021/03/24 12:15:22;;;;;;;22.15;13.05;;;16.00;65.20;;;;;;5092587;28;20786;-67
2021/03/24 12:17:49;;;;;;;20.60;12.57;;;16.10;63.30;;;;;;5090331;28;20426;-66
2021/03/24 12:20:17;;;;;;;19.70;12.20;;;15.90;63.00;;;;;;5091837;28;20370;-59
2021/03/24 12:22:57;;;;;;;19.88;12.55;;;16.10;63.40;;;;;;5081973;28;20389;-67
2021/03/24 12:25:31;;;;;;;21.30;12.65;;;16.10;63.10;;;;;;5082310;28;20890;-66
2021/03/24 12:28:00;;;;;;;20.60;12.10;;;15.80;64.00;;;;;;5057875;28;20444;-66
2021/03/24 12:30:43;;;;;;;19.90;13.00;;;16.20;65.20;;;;;;5084437;28;20394;-66
2021/03/24 12:33:30;;;;;;;22.45;12.95;;;16.20;65.60;;;;;;5086543;28;20500;-66
2021/03/24 12:36:09;;;;;;;23.35;13.13;;;16.50;64.20;;;;;;5090038;28;20388;-66
2021/03/24 12:38:49;;;;;;;23.10;13.03;;;16.70;64.10;;;;;;5085350;28;20624;-66
2021/03/24 12:41:29;;;;;;;16.97;11.10;;;16.70;61.70;;;;;;5085515;28;20376;-59
2021/03/24 12:44:07;;;;;;;19.10;11.83;;;16.80;61.70;;;;;;5082990;28;20398;-66
2021/03/24 12:46:32;;;;;;;21.65;11.95;;;16.80;60.20;;;;;;5087094;28;20389;-67
2021/03/24 12:48:59;;;;;;;19.30;12.00;;;16.50;62.60;;;;;;5088020;28;20937;-66
2021/03/24 12:51:46;;;;;;;22.30;12.27;;;16.50;62.50;;;;;;5084414;28;20405;-66
2021/03/24 12:54:13;;;;;;;18.63;11.32;;;16.70;62.00;;;;;;5086925;28;20450;-67
2021/03/24 12:56:53;;;;;;;21.70;11.02;;;16.90;61.20;;;;;;5081575;28;20392;-68
2021/03/24 12:59:46;;;;;;;19.08;11.38;;;16.50;60.40;;;;;;5087572;28;20404;-60
2021/03/24 13:02:33;;;;;;;19.40;10.77;;;16.10;62.50;;;;;;5083557;28;20490;-67
2021/03/24 13:05:19;;;;;;;18.60;10.05;;;16.10;63.40;;;;;;5080489;28;20413;-65
2021/03/24 13:08:04;;;;;;;17.10;10.30;;;16.00;60.40;;;;;;5090146;28;20406;-65
2021/03/24 13:10:33;;;;;;;29.15;11.52;;;16.10;60.60;;;;;;5064299;28;20391;-67
2021/03/24 13:13:04;;;;;;;19.90;10.30;;;16.50;61.50;;;;;;5088925;28;20441;-64
2021/03/24 13:16:04;;;;;;;17.80;9.93;;;16.70;59.90;;;;;;5082200;28;20690;-68
2021/03/24 13:18:44;;;;;;;18.93;10.17;;;17.00;60.60;;;;;;5082986;28;20571;-65
2021/03/24 13:21:42;;;;;;;16.65;9.60;;;17.20;59.20;;;;;;5091866;28;20868;-69
2021/03/24 13:24:26;;;;;;;14.90;9.20;;;17.00;58.40;;;;;;5089762;28;20399;-66
2021/03/24 13:26:59;;;;;;;16.90;9.70;;;17.40;58.80;;;;;;5083530;28;20395;-67
2021/03/24 13:29:36;;;;;;;16.47;8.73;;;17.30;58.40;;;;;;5087834;28;20799;-66